Time;durP1;ratioP1;P1;durP2;ratioP2;P2;SDS_P1;SDS_P2;PMS_P1;PMS_P2;Temp;Humidity;BMP_temperature;BMP_pressure;BME280_temperature;BME280_humidity;BME280_pressure;Samples;Min_cycle;Max_cycle;Signal;HPM_P1;HPM_P2
2023/03/12 00:00:11;;;;;;;;;16.00;14.00;;;;;-143.91;100.00;62633.25;4916740;29;12929;-73
2023/03/12 00:02:38;;;;;;;;;16.33;12.33;;;;;-143.91;100.00;62633.25;4918500;29;12844;-72
2023/03/12 00:05:06;;;;;;;;;15.67;14.00;;;;;-143.91;100.00;62633.25;4917741;28;17361;-73
2023/03/12 00:07:35;;;;;;;;;19.67;16.00;;;;;-143.91;100.00;62633.25;4915287;29;12154;-73
2023/03/12 00:10:03;;;;;;;;;18.33;14.67;;;;;-143.91;100.00;62633.25;4915986;29;12740;-73
2023/03/12 00:12:31;;;;;;;;;18.67;18.33;;;;;-143.91;100.00;62633.25;4916239;29;12966;-73
2023/03/12 00:14:58;;;;;;;;;17.33;15.33;;;;;-143.91;100.00;62633.25;4915399;29;12241;-73
2023/03/12 00:17:25;;;;;;;;;23.00;19.00;;;;;-143.91;100.00;62633.25;4914270;29;12966;-73
2023/03/12 00:19:52;;;;;;;;;24.00;20.00;;;;;-143.91;100.00;62633.25;4916549;29;12827;-73
2023/03/12 00:22:22;;;;;;;;;15.00;14.33;;;;;-143.91;100.00;62633.25;4917334;29;13200;-72
2023/03/12 00:24:51;;;;;;;;;25.33;20.00;;;;;-143.91;100.00;62633.25;4914949;29;13659;-73
2023/03/12 00:27:19;;;;;;;;;24.00;17.00;;;;;-143.91;100.00;62633.25;4917481;28;12092;-71
2023/03/12 00:29:46;;;;;;;;;19.67;16.67;;;;;-143.91;100.00;62633.25;4914631;29;12857;-72
2023/03/12 00:32:13;;;;;;;;;17.00;13.67;;;;;-143.91;100.00;62633.25;4915346;29;13080;-72
2023/03/12 00:34:41;;;;;;;;;14.33;11.00;;;;;-143.91;100.00;62633.25;4916278;29;12918;-72
2023/03/12 00:37:08;;;;;;;;;19.33;17.00;;;;;-143.91;100.00;62633.25;4917964;29;12063;-72
2023/03/12 00:39:35;;;;;;;;;17.00;14.00;;;;;-143.91;100.00;62633.25;4914828;29;17156;-72
2023/03/12 00:42:02;;;;;;;;;21.67;18.00;;;;;-143.91;100.00;62633.25;4914851;29;12942;-72
2023/03/12 00:44:29;;;;;;;;;21.67;20.00;;;;;-143.91;100.00;62633.25;4915759;29;12883;-72
2023/03/12 00:46:56;;;;;;;;;23.00;21.67;;;;;-143.91;100.00;62633.25;4915453;29;13258;-73
2023/03/12 00:49:23;;;;;;;;;23.33;18.67;;;;;-143.91;100.00;62633.25;4915983;29;12850;-72
2023/03/12 00:51:50;;;;;;;;;24.67;20.33;;;;;-143.91;100.00;62633.25;4914583;29;12733;-72
2023/03/12 00:54:17;;;;;;;;;18.00;16.33;;;;;-143.91;100.00;62633.25;4912295;29;12283;-72
2023/03/12 00:56:45;;;;;;;;;17.67;16.00;;;;;-143.91;100.00;62633.25;4915025;29;12933;-72
2023/03/12 00:59:14;;;;;;;;;16.67;16.00;;;;;-143.91;100.00;62633.25;4915249;29;12837;-71
2023/03/12 01:01:41;;;;;;;;;26.00;15.67;;;;;-143.91;100.00;62633.25;4915755;28;12817;-73
2023/03/12 01:04:09;;;;;;;;;21.00;18.00;;;;;-143.91;100.00;62633.25;4918174;29;12227;-72
2023/03/12 01:06:36;;;;;;;;;22.00;16.33;;;;;-143.91;100.00;62633.25;4916411;29;13182;-72
2023/03/12 01:09:05;;;;;;;;;25.00;23.67;;;;;-143.91;100.00;62633.25;4915836;29;13267;-72
2023/03/12 01:11:33;;;;;;;;;26.67;23.00;;;;;-143.91;100.00;62633.25;4912109;29;13137;-72
2023/03/12 01:14:01;;;;;;;;;30.33;23.67;;;;;-143.91;100.00;62633.25;4915325;29;12176;-73
2023/03/12 01:16:29;;;;;;;;;26.00;22.33;;;;;-143.91;100.00;62633.25;4914647;29;12614;-72
2023/03/12 01:18:57;;;;;;;;;24.33;20.67;;;;;-143.91;100.00;62633.25;4916084;29;12772;-72
2023/03/12 01:21:26;;;;;;;;;26.33;23.33;;;;;-143.91;100.00;62633.25;4916087;29;12930;-71
2023/03/12 01:23:53;;;;;;;;;29.00;23.33;;;;;-143.91;100.00;62633.25;4913941;29;12771;-72
2023/03/12 01:26:21;;;;;;;;;29.33;25.00;;;;;-143.91;100.00;62633.25;4918663;28;12273;-72
2023/03/12 01:28:48;;;;;;;;;30.00;23.67;;;;;-143.91;100.00;62633.25;4917692;29;12673;-72
2023/03/12 01:31:17;;;;;;;;;25.33;22.33;;;;;-143.91;100.00;62633.25;4919087;29;12932;-72
2023/03/12 01:33:48;;;;;;;;;29.33;27.00;;;;;-143.91;100.00;62633.25;4918531;29;13831;-72
2023/03/12 01:36:18;;;;;;;;;30.67;27.67;;;;;-143.91;100.00;62633.25;4913557;29;12891;-71
2023/03/12 01:38:45;;;;;;;;;35.67;26.00;;;;;-143.91;100.00;62633.25;4913060;29;12718;-71
2023/03/12 01:41:13;;;;;;;;;32.33;24.33;;;;;-143.91;100.00;62633.25;4917240;29;12657;-73
2023/03/12 01:43:40;;;;;;;;;19.33;19.33;;;;;-143.91;100.00;62633.25;4917850;29;12956;-71
2023/03/12 01:46:28;;;;;;;;;28.33;20.00;;;;;-143.91;100.00;62633.25;4917598;29;12578;-72
2023/03/12 01:49:00;;;;;;;;;22.67;21.33;;;;;-143.91;100.00;62633.25;4915726;29;17146;-71
2023/03/12 01:51:40;;;;;;;;;23.67;21.33;;;;;-143.91;100.00;62633.25;4917685;29;12712;-72
2023/03/12 01:54:13;;;;;;;;;26.00;22.33;;;;;-143.91;100.00;62633.25;4917189;29;15961;-72
2023/03/12 01:56:41;;;;;;;;;23.00;18.00;;;;;-143.91;100.00;62633.25;4914329;29;13729;-72
2023/03/12 01:59:19;;;;;;;;;19.00;14.00;;;;;-143.91;100.00;62633.25;4920451;28;12887;-72
2023/03/12 02:01:47;;;;;;;;;18.33;16.00;;;;;-143.91;100.00;62633.25;4909030;29;15837;-72
2023/03/12 02:04:16;;;;;;;;;26.33;20.00;;;;;-143.91;100.00;62633.25;4910054;29;12867;-71
2023/03/12 02:06:56;;;;;;;;;22.00;14.33;;;;;-143.91;100.00;62633.25;4913644;29;12766;-73
2023/03/12 02:09:49;;;;;;;;;22.00;17.00;;;;;-143.91;100.00;62633.25;4916479;29;12782;-72
2023/03/12 02:12:33;;;;;;;;;25.00;20.00;;;;;-143.91;100.00;62633.25;4913364;29;15843;-72
2023/03/12 02:15:20;;;;;;;;;19.00;16.33;;;;;-143.91;100.00;62633.25;4917719;29;16119;-72
2023/03/12 02:18:22;;;;;;;;;24.00;16.33;;;;;-143.91;100.00;62633.25;4900375;29;13325;-72
2023/03/12 02:21:34;;;;;;;;;29.00;20.67;;;;;-143.91;100.00;62633.25;4911991;29;17042;-72
2023/03/12 02:24:34;;;;;;;;;23.00;16.00;;;;;-143.91;100.00;62633.25;4914317;29;17465;-72
2023/03/12 02:27:03;;;;;;;;;14.00;12.33;;;;;-143.91;100.00;62633.25;4918795;28;12143;-72
2023/03/12 02:29:33;;;;;;;;;17.67;11.33;;;;;-143.91;100.00;62633.25;4917143;29;14044;-72
2023/03/12 02:32:03;;;;;;;;;17.67;16.67;;;;;-143.91;100.00;62633.25;4917206;29;18216;-72
2023/03/12 02:34:30;;;;;;;;;21.00;14.00;;;;;-143.91;100.00;62633.25;4916710;29;12224;-72
2023/03/12 02:36:57;;;;;;;;;11.67;10.67;;;;;-143.91;100.00;62633.25;4918358;28;12772;-72
2023/03/12 02:39:24;;;;;;;;;16.67;10.33;;;;;-143.91;100.00;62633.25;4915927;29;12178;-71
2023/03/12 02:41:54;;;;;;;;;10.00;5.00;;;;;-143.91;100.00;62633.25;4917048;29;13240;-72
2023/03/12 02:44:24;;;;;;;;;10.67;8.00;;;;;-143.91;100.00;62633.25;4917326;28;13284;-71
2023/03/12 02:46:54;;;;;;;;;7.00;5.00;;;;;-143.91;100.00;62633.25;4918511;29;12234;-71
2023/03/12 02:49:24;;;;;;;;;8.67;7.33;;;;;-143.91;100.00;62633.25;4917131;29;12168;-72
2023/03/12 02:51:51;;;;;;;;;10.00;7.00;;;;;-143.91;100.00;62633.25;4917431;29;13194;-72
2023/03/12 02:54:19;;;;;;;;;6.33;5.00;;;;;-143.91;100.00;62633.25;4916836;29;12153;-71
2023/03/12 02:56:47;;;;;;;;;7.67;7.00;;;;;-143.91;100.00;62633.25;4917283;29;12659;-71
2023/03/12 02:59:15;;;;;;;;;4.00;4.00;;;;;-143.91;100.00;62633.25;4917137;29;12249;-71
2023/03/12 03:01:43;;;;;;;;;5.67;4.00;;;;;-143.91;100.00;62633.25;4916863;29;14302;-73
2023/03/12 03:04:11;;;;;;;;;4.67;4.67;;;;;-143.91;100.00;62633.25;4919615;29;13689;-71
2023/03/12 03:06:43;;;;;;;;;11.00;10.33;;;;;-143.91;100.00;62633.25;4900870;29;15880;-71
2023/03/12 03:09:09;;;;;;;;;11.33;7.33;;;;;-143.91;100.00;62633.25;4918085;29;13630;-71
2023/03/12 03:11:36;;;;;;;;;8.00;6.33;;;;;-143.91;100.00;62633.25;4918397;29;17221;-71
2023/03/12 03:14:05;;;;;;;;;10.00;5.67;;;;;-143.91;100.00;62633.25;4916880;29;13141;-71
2023/03/12 03:16:32;;;;;;;;;7.00;7.00;;;;;-143.91;100.00;62633.25;4916528;29;13034;-72
2023/03/12 03:18:59;;;;;;;;;8.00;8.00;;;;;-143.91;100.00;62633.25;4915943;29;12770;-71
2023/03/12 03:21:26;;;;;;;;;8.00;7.33;;;;;-143.91;100.00;62633.25;4915329;28;13281;-71
2023/03/12 03:23:53;;;;;;;;;9.00;8.33;;;;;-143.91;100.00;62633.25;4911109;29;12926;-71
2023/03/12 03:26:22;;;;;;;;;13.33;11.00;;;;;-143.91;100.00;62633.25;4920782;28;12099;-71
2023/03/12 03:28:49;;;;;;;;;8.67;7.33;;;;;-143.91;100.00;62633.25;4914431;29;12068;-71
2023/03/12 03:31:17;;;;;;;;;12.00;10.67;;;;;-143.91;100.00;62633.25;4912763;29;12931;-71
2023/03/12 03:33:44;;;;;;;;;19.00;12.33;;;;;-143.91;100.00;62633.25;4916902;29;12425;-71
2023/03/12 03:36:15;;;;;;;;;12.33;11.00;;;;;-143.91;100.00;62633.25;4914418;29;12760;-71
2023/03/12 03:38:45;;;;;;;;;11.00;9.33;;;;;-143.91;100.00;62633.25;4913262;29;12685;-72
2023/03/12 03:41:12;;;;;;;;;9.33;8.00;;;;;-143.91;100.00;62633.25;4914233;29;12671;-71
2023/03/12 03:43:39;;;;;;;;;7.00;7.00;;;;;-143.91;100.00;62633.25;4917909;29;12851;-71
2023/03/12 03:46:06;;;;;;;;;12.33;10.00;;;;;-143.91;100.00;62633.25;4914815;29;16184;-71
2023/03/12 03:48:33;;;;;;;;;9.33;8.33;;;;;-143.91;100.00;62633.25;4915597;29;12184;-71
2023/03/12 03:51:03;;;;;;;;;11.00;8.00;;;;;-143.91;100.00;62633.25;4913427;28;12970;-71
2023/03/12 03:53:30;;;;;;;;;10.33;8.00;;;;;-143.91;100.00;62633.25;4912559;29;12770;-71
2023/03/12 03:55:58;;;;;;;;;8.00;6.33;;;;;-143.91;100.00;62633.25;4915158;29;12880;-71
2023/03/12 03:58:25;;;;;;;;;8.00;7.67;;;;;-143.91;100.00;62633.25;4913883;29;12914;-71
2023/03/12 04:00:53;;;;;;;;;10.33;8.33;;;;;-143.91;100.00;62633.25;4915648;29;14209;-71
2023/03/12 04:03:20;;;;;;;;;12.33;7.67;;;;;-143.91;100.00;62633.25;4909593;29;13005;-71
2023/03/12 04:05:53;;;;;;;;;7.00;6.00;;;;;-143.91;100.00;62633.25;4911248;29;13319;-71
2023/03/12 04:08:20;;;;;;;;;9.00;6.67;;;;;-143.91;100.00;62633.25;4914855;29;13860;-71
2023/03/12 04:10:47;;;;;;;;;6.67;3.33;;;;;-143.91;100.00;62633.25;4916559;29;12862;-71
2023/03/12 04:13:14;;;;;;;;;7.00;6.00;;;;;-143.91;100.00;62633.25;4913451;29;13208;-70
2023/03/12 04:15:49;;;;;;;;;7.67;4.67;;;;;-143.91;100.00;62633.25;4915679;29;13523;-70
2023/03/12 04:18:17;;;;;;;;;6.33;4.00;;;;;-143.91;100.00;62633.25;4916060;29;12391;-70
2023/03/12 04:20:44;;;;;;;;;8.33;3.67;;;;;-143.91;100.00;62633.25;4915230;29;12754;-70
2023/03/12 04:23:11;;;;;;;;;5.67;5.33;;;;;-143.91;100.00;62633.25;4916277;29;12870;-70
2023/03/12 04:25:38;;;;;;;;;7.67;4.33;;;;;-143.91;100.00;62633.25;4917100;28;12676;-71
2023/03/12 04:28:05;;;;;;;;;6.00;4.00;;;;;-143.91;100.00;62633.25;4915241;29;12889;-71
2023/03/12 04:30:32;;;;;;;;;7.00;5.33;;;;;-143.91;100.00;62633.25;4915611;29;12852;-71
2023/03/12 04:32:59;;;;;;;;;7.00;6.67;;;;;-143.91;100.00;62633.25;4915683;29;13114;-70
2023/03/12 04:35:26;;;;;;;;;9.67;7.00;;;;;-143.91;100.00;62633.25;4912668;28;12949;-70
2023/03/12 04:37:53;;;;;;;;;8.33;5.33;;;;;-143.91;100.00;62633.25;4914454;29;12210;-70
2023/03/12 04:40:21;;;;;;;;;7.67;7.00;;;;;-143.91;100.00;62633.25;4914992;29;13015;-69
2023/03/12 04:42:48;;;;;;;;;7.67;6.00;;;;;-143.91;100.00;62633.25;4915843;29;12715;-70
2023/03/12 04:45:15;;;;;;;;;8.33;6.33;;;;;-143.91;100.00;62633.25;4913974;29;12727;-70
2023/03/12 04:47:42;;;;;;;;;9.33;9.00;;;;;-143.91;100.00;62633.25;4914331;28;12254;-70
2023/03/12 04:50:10;;;;;;;;;12.67;12.00;;;;;-143.91;100.00;62633.25;4914929;29;17509;-70
2023/03/12 04:52:37;;;;;;;;;13.33;8.33;;;;;-143.91;100.00;62633.25;4913832;29;12976;-70
2023/03/12 04:55:05;;;;;;;;;10.00;8.67;;;;;-143.91;100.00;62633.25;4913500;29;12223;-70
2023/03/12 04:57:32;;;;;;;;;11.00;9.33;;;;;-143.91;100.00;62633.25;4912227;29;12176;-70
2023/03/12 04:59:59;;;;;;;;;8.33;7.00;;;;;-143.91;100.00;62633.25;4913834;29;13219;-70
2023/03/12 05:02:26;;;;;;;;;16.00;9.00;;;;;-143.91;100.00;62633.25;4914077;29;12497;-70
2023/03/12 05:04:56;;;;;;;;;12.00;9.00;;;;;-143.91;100.00;62633.25;4914934;29;12794;-70
2023/03/12 05:07:23;;;;;;;;;15.00;11.00;;;;;-143.91;100.00;62633.25;4915812;29;12215;-70
2023/03/12 05:09:50;;;;;;;;;12.33;10.00;;;;;-143.91;100.00;62633.25;4913793;29;12705;-70
2023/03/12 05:12:17;;;;;;;;;10.00;8.33;;;;;-143.91;100.00;62633.25;4915323;29;12728;-70
2023/03/12 05:14:44;;;;;;;;;10.00;7.00;;;;;-143.91;100.00;62633.25;4915538;29;12639;-69
2023/03/12 05:17:11;;;;;;;;;15.33;9.67;;;;;-143.91;100.00;62633.25;4915697;29;12242;-70
2023/03/12 05:19:37;;;;;;;;;12.00;9.00;;;;;-143.91;100.00;62633.25;4912060;29;17790;-70
2023/03/12 05:22:04;;;;;;;;;16.00;13.33;;;;;-143.91;100.00;62633.25;4912051;29;12215;-70
2023/03/12 05:24:31;;;;;;;;;12.33;9.00;;;;;-143.91;100.00;62633.25;4914228;29;13356;-70
2023/03/12 05:26:58;;;;;;;;;17.33;12.00;;;;;-143.91;100.00;62633.25;4912322;28;12950;-70
2023/03/12 05:29:25;;;;;;;;;12.00;12.00;;;;;-143.91;100.00;62633.25;4910074;29;12845;-70
2023/03/12 05:31:52;;;;;;;;;10.33;9.33;;;;;-143.91;100.00;62633.25;4909053;29;14150;-70
2023/03/12 05:34:19;;;;;;;;;17.33;11.00;;;;;-143.91;100.00;62633.25;4908772;28;12263;-70
2023/03/12 05:36:46;;;;;;;;;11.33;10.00;;;;;-143.91;100.00;62633.25;4910205;29;12260;-70
2023/03/12 05:39:14;;;;;;;;;12.33;9.67;;;;;-143.91;100.00;62633.25;4910813;29;12856;-70
2023/03/12 05:41:40;;;;;;;;;14.33;12.00;;;;;-143.91;100.00;62633.25;4914660;29;12116;-70
2023/03/12 05:44:12;;;;;;;;;19.67;11.33;;;;;-143.91;100.00;62633.25;4913021;28;15853;-70
2023/03/12 05:46:39;;;;;;;;;9.67;9.67;;;;;-143.91;100.00;62633.25;4897405;29;13351;-70
2023/03/12 05:49:06;;;;;;;;;20.33;12.67;;;;;-143.91;100.00;62633.25;4913843;29;12902;-70
2023/03/12 05:51:34;;;;;;;;;16.00;10.00;;;;;-143.91;100.00;62633.25;4911161;29;13551;-70
2023/03/12 05:54:01;;;;;;;;;10.00;8.67;;;;;-143.91;100.00;62633.25;4892022;29;13199;-70
2023/03/12 05:56:28;;;;;;;;;12.67;7.00;;;;;-143.91;100.00;62633.25;4912143;29;12101;-70
2023/03/12 05:58:55;;;;;;;;;15.33;10.67;;;;;-143.91;100.00;62633.25;4910435;29;12816;-70
2023/03/12 06:01:26;;;;;;;;;9.67;6.67;;;;;-143.91;100.00;62633.25;4910371;29;15941;-70
2023/03/12 06:03:53;;;;;;;;;4.33;4.00;;;;;-143.91;100.00;62633.25;4913160;29;12827;-70
2023/03/12 06:06:20;;;;;;;;;15.00;10.33;;;;;-143.91;100.00;62633.25;4910876;29;12780;-70
2023/03/12 06:08:47;;;;;;;;;10.00;8.00;;;;;-143.91;100.00;62633.25;4905329;29;13083;-70
2023/03/12 06:11:14;;;;;;;;;10.33;8.00;;;;;-143.91;100.00;62633.25;4909723;29;12581;-71
2023/03/12 06:13:41;;;;;;;;;6.33;4.67;;;;;-143.91;100.00;62633.25;4915728;29;13461;-70
2023/03/12 06:16:19;;;;;;;;;10.00;7.00;;;;;-143.91;100.00;62633.25;4916447;29;13569;-71
2023/03/12 06:18:46;;;;;;;;;10.33;7.67;;;;;-143.91;100.00;62633.25;4909901;29;18825;-70
2023/03/12 06:21:20;;;;;;;;;3.33;3.33;;;;;-143.91;100.00;62633.25;4898129;29;12276;-71
2023/03/12 06:23:47;;;;;;;;;10.00;8.00;;;;;-143.91;100.00;62633.25;4913849;29;12521;-71
2023/03/12 06:26:15;;;;;;;;;8.67;8.00;;;;;-143.91;100.00;62633.25;4914252;29;12668;-71
2023/03/12 06:28:47;;;;;;;;;11.00;10.33;;;;;-143.91;100.00;62633.25;4916624;29;12746;-71
2023/03/12 06:31:15;;;;;;;;;8.00;7.33;;;;;-143.91;100.00;62633.25;4913991;29;15984;-71
2023/03/12 06:33:42;;;;;;;;;3.33;2.00;;;;;-143.91;100.00;62633.25;4920308;29;13124;-71
2023/03/12 06:36:10;;;;;;;;;15.33;11.00;;;;;-143.91;100.00;62633.25;4918210;29;13243;-71
2023/03/12 06:38:37;;;;;;;;;10.33;10.00;;;;;-143.91;100.00;62633.25;4919370;28;12837;-71
2023/03/12 06:41:14;;;;;;;;;15.33;13.00;;;;;-143.91;100.00;62633.25;4915695;29;13222;-71
2023/03/12 06:43:42;;;;;;;;;13.00;10.00;;;;;-143.91;100.00;62633.25;4919592;28;15950;-71
2023/03/12 06:46:13;;;;;;;;;12.00;6.33;;;;;-143.91;100.00;62633.25;4918252;29;13618;-72
2023/03/12 06:48:40;;;;;;;;;15.00;12.00;;;;;-143.91;100.00;62633.25;4918354;29;17173;-71
2023/03/12 06:51:08;;;;;;;;;11.33;11.00;;;;;-143.91;100.00;62633.25;4915221;29;12512;-71
2023/03/12 06:53:36;;;;;;;;;14.33;14.00;;;;;-143.91;100.00;62633.25;4917247;28;12843;-71
2023/03/12 06:56:06;;;;;;;;;12.67;12.00;;;;;-143.91;100.00;62633.25;4916155;29;12194;-71
2023/03/12 06:58:33;;;;;;;;;17.00;14.00;;;;;-143.91;100.00;62633.25;4918520;29;14665;-72
2023/03/12 07:01:00;;;;;;;;;9.33;8.00;;;;;-143.91;100.00;62633.25;4917838;29;12719;-71
2023/03/12 07:03:27;;;;;;;;;13.33;11.67;;;;;-143.91;100.00;62633.25;4916173;29;12254;-71
2023/03/12 07:05:56;;;;;;;;;14.67;11.00;;;;;-143.91;100.00;62633.25;4916349;29;13005;-71
2023/03/12 07:08:24;;;;;;;;;11.33;9.33;;;;;-143.91;100.00;62633.25;4915861;29;12736;-71
2023/03/12 07:10:51;;;;;;;;;16.67;11.33;;;;;-143.91;100.00;62633.25;4917076;29;13333;-70
2023/03/12 07:13:18;;;;;;;;;13.33;8.00;;;;;-143.91;100.00;62633.25;4915253;28;12194;-70
2023/03/12 07:15:45;;;;;;;;;7.33;7.00;;;;;-143.91;100.00;62633.25;4916409;29;12342;-71
2023/03/12 07:18:12;;;;;;;;;14.00;12.00;;;;;-143.91;100.00;62633.25;4920483;28;13714;-72
2023/03/12 07:20:42;;;;;;;;;14.67;14.00;;;;;-143.91;100.00;62633.25;4900933;29;17079;-72
2023/03/12 07:23:09;;;;;;;;;49.67;42.00;;;;;-143.91;100.00;62633.25;4917902;29;16167;-71
2023/03/12 07:25:38;;;;;;;;;33.33;26.67;;;;;-143.91;100.00;62633.25;4914328;29;13070;-71
2023/03/12 07:28:07;;;;;;;;;21.00;18.00;;;;;-143.91;100.00;62633.25;4916775;29;13350;-71
2023/03/12 07:30:34;;;;;;;;;29.67;25.00;;;;;-143.91;100.00;62633.25;4918004;29;12728;-71
2023/03/12 07:33:06;;;;;;;;;28.67;22.33;;;;;-143.91;100.00;62633.25;4914296;29;12653;-71
2023/03/12 07:35:33;;;;;;;;;13.67;11.00;;;;;-143.91;100.00;62633.25;4914951;29;12700;-71
2023/03/12 07:38:01;;;;;;;;;17.33;14.67;;;;;-143.91;100.00;62633.25;4912654;28;12678;-72
2023/03/12 07:40:28;;;;;;;;;18.67;16.00;;;;;-143.91;100.00;62633.25;4900801;29;12667;-70
2023/03/12 07:42:56;;;;;;;;;16.33;12.00;;;;;-143.91;100.00;62633.25;4916333;28;12877;-71
2023/03/12 07:45:23;;;;;;;;;15.67;13.33;;;;;-143.91;100.00;62633.25;4915416;29;12652;-70
2023/03/12 07:47:50;;;;;;;;;22.33;19.00;;;;;-143.91;100.00;62633.25;4915753;29;14413;-71
2023/03/12 07:50:17;;;;;;;;;27.67;21.33;;;;;-143.91;100.00;62633.25;4912873;29;12284;-70
2023/03/12 07:52:45;;;;;;;;;26.00;19.33;;;;;-143.91;100.00;62633.25;4916279;29;12085;-70
2023/03/12 07:55:12;;;;;;;;;24.33;20.00;;;;;-143.91;100.00;62633.25;4920049;29;12650;-71
2023/03/12 07:57:39;;;;;;;;;21.00;18.67;;;;;-143.91;100.00;62633.25;4916052;29;18947;-71
2023/03/12 08:00:09;;;;;;;;;25.33;22.00;;;;;-143.91;100.00;62633.25;4912753;29;12163;-71
2023/03/12 08:02:36;;;;;;;;;22.33;18.67;;;;;-143.91;100.00;62633.25;4915926;29;12896;-72
2023/03/12 08:05:04;;;;;;;;;18.33;15.67;;;;;-143.91;100.00;62633.25;4913014;29;12259;-71
2023/03/12 08:07:31;;;;;;;;;26.33;21.67;;;;;-143.91;100.00;62633.25;4915232;28;13030;-70
2023/03/12 08:09:59;;;;;;;;;21.00;16.33;;;;;-143.91;100.00;62633.25;4913925;29;12606;-70
2023/03/12 08:12:27;;;;;;;;;19.00;13.00;;;;;-143.91;100.00;62633.25;4914673;29;12772;-71
2023/03/12 08:14:54;;;;;;;;;20.00;15.67;;;;;-143.91;100.00;62633.25;4914446;29;12874;-70
2023/03/12 08:17:21;;;;;;;;;15.00;15.00;;;;;-143.91;100.00;62633.25;4915585;29;13063;-70
2023/03/12 08:19:48;;;;;;;;;15.00;14.33;;;;;-143.91;100.00;62633.25;4914310;29;12254;-70
2023/03/12 08:22:15;;;;;;;;;22.33;14.33;;;;;-143.91;100.00;62633.25;4913299;29;13374;-70
2023/03/12 08:24:42;;;;;;;;;19.33;17.00;;;;;-143.91;100.00;62633.25;4917998;29;12711;-71
2023/03/12 08:27:11;;;;;;;;;21.33;16.67;;;;;-143.91;100.00;62633.25;4914882;29;17490;-70
2023/03/12 08:29:39;;;;;;;;;26.67;15.00;;;;;-143.91;100.00;62633.25;4915314;29;12885;-71
2023/03/12 08:32:07;;;;;;;;;16.00;12.67;;;;;-143.91;100.00;62633.25;4915717;29;12212;-70
2023/03/12 08:34:34;;;;;;;;;15.33;12.33;;;;;-143.91;100.00;62633.25;4915255;29;13785;-71
2023/03/12 08:37:02;;;;;;;;;17.00;14.33;;;;;-143.91;100.00;62633.25;4913479;29;13121;-71
2023/03/12 08:39:29;;;;;;;;;33.00;23.00;;;;;-143.91;100.00;62633.25;4918086;28;12971;-70
2023/03/12 08:41:56;;;;;;;;;17.33;13.33;;;;;-143.91;100.00;62633.25;4915951;29;12148;-71
2023/03/12 08:44:24;;;;;;;;;18.00;13.00;;;;;-143.91;100.00;62633.25;4903902;29;12762;-70
2023/03/12 08:46:51;;;;;;;;;14.00;12.33;;;;;-143.91;100.00;62633.25;4917257;29;12745;-71
2023/03/12 08:49:20;;;;;;;;;24.00;20.33;;;;;-143.91;100.00;62633.25;4915963;29;13041;-70
2023/03/12 08:51:47;;;;;;;;;23.67;15.33;;;;;-143.91;100.00;62633.25;4915902;29;12775;-70
2023/03/12 08:54:14;;;;;;;;;16.00;14.67;;;;;-143.91;100.00;62633.25;4916563;29;12258;-71
2023/03/12 08:56:42;;;;;;;;;12.67;11.33;;;;;-143.91;100.00;62633.25;4917920;29;12867;-71
2023/03/12 08:59:10;;;;;;;;;19.67;16.33;;;;;-143.91;100.00;62633.25;4916933;29;15614;-70
2023/03/12 09:01:39;;;;;;;;;16.00;14.00;;;;;-143.91;100.00;62633.25;4915178;29;12037;-70
2023/03/12 09:04:09;;;;;;;;;10.67;8.67;;;;;-143.91;100.00;62633.25;4914497;29;13300;-71
2023/03/12 09:06:37;;;;;;;;;18.67;12.00;;;;;-143.91;100.00;62633.25;4915106;29;12795;-70
2023/03/12 09:09:04;;;;;;;;;11.33;9.67;;;;;-143.91;100.00;62633.25;4913322;29;13796;-70
2023/03/12 09:11:33;;;;;;;;;13.00;10.00;;;;;-143.91;100.00;62633.25;4915861;28;13196;-70
2023/03/12 09:14:00;;;;;;;;;16.00;12.00;;;;;-143.91;100.00;62633.25;4914783;29;12550;-70
2023/03/12 09:16:48;;;;;;;;;13.00;12.00;;;;;-143.91;100.00;62633.25;4909288;29;16985;-71
2023/03/12 09:19:15;;;;;;;;;13.75;12.00;;;;;-143.91;100.00;62633.25;4913850;29;12193;-71
2023/03/12 09:21:42;;;;;;;;;16.00;13.25;;;;;-143.91;100.00;62633.25;4917560;29;12670;-72
2023/03/12 09:24:10;;;;;;;;;19.67;16.33;;;;;-143.91;100.00;62633.25;4917702;29;13369;-71
2023/03/12 09:26:37;;;;;;;;;12.25;12.00;;;;;-143.91;100.00;62633.25;4914347;29;13886;-71
2023/03/12 09:29:04;;;;;;;;;17.25;14.00;;;;;-143.91;100.00;62633.25;4915405;29;12230;-72
2023/03/12 09:31:32;;;;;;;;;13.50;11.75;;;;;-143.91;100.00;62633.25;4914805;29;12783;-71
2023/03/12 09:33:59;;;;;;;;;16.00;11.50;;;;;-143.91;100.00;62633.25;4916168;29;12564;-69
2023/03/12 09:36:27;;;;;;;;;12.25;10.00;;;;;-143.91;100.00;62633.25;4915002;29;12985;-72
2023/03/12 09:38:54;;;;;;;;;17.25;15.00;;;;;-143.91;100.00;62633.25;4910095;28;17142;-71
2023/03/12 09:41:26;;;;;;;;;11.00;6.50;;;;;-143.91;100.00;62633.25;4915415;29;13162;-70
2023/03/12 09:44:00;;;;;;;;;7.50;6.25;;;;;-143.91;100.00;62633.25;4916758;28;13149;-70
2023/03/12 09:46:42;;;;;;;;;14.25;12.50;;;;;-143.91;100.00;62633.25;4914383;29;12948;-71
2023/03/12 09:49:18;;;;;;;;;14.75;12.00;;;;;-143.91;100.00;62633.25;4915243;29;13262;-71
2023/03/12 09:51:52;;;;;;;;;10.25;10.00;;;;;-143.91;100.00;62633.25;4913363;29;17268;-71
2023/03/12 09:54:32;;;;;;;;;13.00;12.00;;;;;-143.91;100.00;62633.25;4916108;28;13046;-71
2023/03/12 09:57:07;;;;;;;;;14.00;11.00;;;;;-143.91;100.00;62633.25;4915497;29;12925;-71
2023/03/12 09:59:35;;;;;;;;;11.00;9.25;;;;;-143.91;100.00;62633.25;4918532;29;12964;-71
2023/03/12 10:02:25;;;;;;;;;14.00;11.00;;;;;-143.91;100.00;62633.25;4917545;29;12856;-72
2023/03/12 10:05:02;;;;;;;;;16.75;14.00;;;;;-143.91;100.00;62633.25;4913494;29;13186;-73
2023/03/12 10:07:47;;;;;;;;;14.00;9.75;;;;;-143.91;100.00;62633.25;4918878;28;12781;-72
2023/03/12 10:10:34;;;;;;;;;12.50;10.00;;;;;-143.91;100.00;62633.25;4918069;29;17207;-72
2023/03/12 10:13:48;;;;;;;;;7.25;6.50;;;;;-143.91;100.00;62633.25;4912009;28;15937;-73
2023/03/12 10:16:33;;;;;;;;;8.75;3.00;;;;;-143.91;100.00;62633.25;4839119;29;13220;-73
2023/03/12 10:19:29;;;;;;;;;7.25;7.25;;;;;-143.91;100.00;62633.25;4839911;29;17380;-72
2023/03/12 10:22:19;;;;;;;;;6.00;6.00;;;;;-143.91;100.00;62633.25;4903896;29;16124;-72
2023/03/12 10:25:04;;;;;;;;;3.00;3.00;;;;;-143.91;100.00;62633.25;4914709;29;16479;-73
2023/03/12 10:27:35;;;;;;;;;9.00;5.00;;;;;-143.91;100.00;62633.25;4916603;29;12585;-72
2023/03/12 10:30:15;;;;;;;;;9.75;7.75;;;;;-143.91;100.00;62633.25;4916039;29;12919;-72
2023/03/12 10:32:48;;;;;;;;;9.50;8.50;;;;;-143.91;100.00;62633.25;4915482;29;17385;-72
2023/03/12 10:35:23;;;;;;;;;10.25;6.50;;;;;-143.91;100.00;62633.25;4916654;29;15866;-72
2023/03/12 10:37:56;;;;;;;;;6.50;6.00;;;;;-143.91;100.00;62633.25;4916803;29;13209;-72
2023/03/12 10:40:28;;;;;;;;;3.00;2.25;;;;;-143.91;100.00;62633.25;4917264;29;12848;-72
2023/03/12 10:42:55;;;;;;;;;7.00;6.00;;;;;-143.91;100.00;62633.25;4918648;28;19468;-73
2023/03/12 10:45:51;;;;;;;;;6.75;6.50;;;;;-143.91;100.00;62633.25;4918076;29;12195;-72
2023/03/12 10:48:21;;;;;;;;;9.25;7.50;;;;;-143.91;100.00;62633.25;4915488;29;13179;-71
2023/03/12 10:51:07;;;;;;;;;8.50;7.00;;;;;-143.91;100.00;62633.25;4912226;29;12701;-72
2023/03/12 10:53:46;;;;;;;;;6.50;6.25;;;;;-143.91;100.00;62633.25;4912716;29;12756;-73
2023/03/12 10:56:19;;;;;;;;;6.50;3.00;;;;;-143.91;100.00;62633.25;4915356;29;16148;-73
2023/03/12 10:58:52;;;;;;;;;10.00;9.50;;;;;-143.91;100.00;62633.25;4911254;29;14198;-72
2023/03/12 11:01:21;;;;;;;;;7.75;7.00;;;;;-143.91;100.00;62633.25;4916849;29;13252;-73
2023/03/12 11:03:50;;;;;;;;;8.00;7.00;;;;;-143.91;100.00;62633.25;4914081;28;12239;-73
2023/03/12 11:06:24;;;;;;;;;8.50;7.50;;;;;-143.91;100.00;62633.25;4908634;29;12140;-72
2023/03/12 11:09:09;;;;;;;;;6.50;6.00;;;;;-143.91;100.00;62633.25;4912523;28;12748;-71
2023/03/12 11:11:46;;;;;;;;;7.25;6.00;;;;;-143.91;100.00;62633.25;4913098;29;17097;-71